Peru, Nebraska
Current Conditions -  °F | °C
As of 3:55 AM on Tuesday 21 Oct 2014 (Local Time) from KAFK Reporting Station
Clear Clear  
Wind Chill:   Ceiling: Unl
Heat Index:   Visibility: 10mi
Dew Point:   Wind: 6mph
Humidity: 58%   Direction: 220°SW
Pressure: 30.09"   Gusts: NA
Location:  40.47°N, 95.73°W
Report Text: KAFK 210855Z AUTO 22005KT 10SM CLR 08/01 A3009 RMK AO2 T00840005
Loading
Personal Weather Stations






























Interactive Weather Map
Tropical Storm Tracking
New forecast layout! Learn more

10-Day Weather Forecast

Advertisements
Track Severe Weather on mobile